sensor_id;sensor_type;location;lat;lon;timestamp;temperature;humidity
52103;DHT22;38101;53.126;6.878;2023-05-07T00:00:06;12.30;99.90
52103;DHT22;38101;53.126;6.878;2023-05-07T00:02:36;12.30;99.90
52103;DHT22;38101;53.126;6.878;2023-05-07T00:05:03;12.30;99.90
52103;DHT22;38101;53.126;6.878;2023-05-07T00:07:29;12.30;99.90
52103;DHT22;38101;53.126;6.878;2023-05-07T00:09:55;12.30;99.90
52103;DHT22;38101;53.126;6.878;2023-05-07T00:12:21;12.20;99.90
52103;DHT22;38101;53.126;6.878;2023-05-07T00:14:47;12.20;99.90
52103;DHT22;38101;53.126;6.878;2023-05-07T00:17:13;12.20;99.90
52103;DHT22;38101;53.126;6.878;2023-05-07T00:19:38;12.10;99.90
52103;DHT22;38101;53.126;6.878;2023-05-07T00:22:04;12.20;99.90
52103;DHT22;38101;53.126;6.878;2023-05-07T00:24:30;12.10;99.90
52103;DHT22;38101;53.126;6.878;2023-05-07T00:26:56;12.10;99.90
52103;DHT22;38101;53.126;6.878;2023-05-07T00:29:23;12.10;99.90
52103;DHT22;38101;53.126;6.878;2023-05-07T00:31:49;12.10;99.90
52103;DHT22;38101;53.126;6.878;2023-05-07T00:34:16;12.10;99.90
52103;DHT22;38101;53.126;6.878;2023-05-07T00:36:42;12.20;99.90
52103;DHT22;38101;53.126;6.878;2023-05-07T00:39:08;12.20;99.90
52103;DHT22;38101;53.126;6.878;2023-05-07T00:41:33;12.10;99.90
52103;DHT22;38101;53.126;6.878;2023-05-07T00:44:00;12.20;99.90
52103;DHT22;38101;53.126;6.878;2023-05-07T00:46:28;12.20;99.90
52103;DHT22;38101;53.126;6.878;2023-05-07T00:48:55;12.20;99.90
52103;DHT22;38101;53.126;6.878;2023-05-07T00:51:21;12.10;99.90
52103;DHT22;38101;53.126;6.878;2023-05-07T00:53:47;12.10;99.90
52103;DHT22;38101;53.126;6.878;2023-05-07T00:56:13;12.10;99.90
52103;DHT22;38101;53.126;6.878;2023-05-07T00:58:40;12.10;99.90
52103;DHT22;38101;53.126;6.878;2023-05-07T01:01:06;12.10;99.90
52103;DHT22;38101;53.126;6.878;2023-05-07T01:03:32;12.20;99.90
52103;DHT22;38101;53.126;6.878;2023-05-07T01:05:58;12.20;99.90
52103;DHT22;38101;53.126;6.878;2023-05-07T01:08:25;12.20;99.90
52103;DHT22;38101;53.126;6.878;2023-05-07T01:10:54;12.10;99.90
52103;DHT22;38101;53.126;6.878;2023-05-07T01:13:20;12.10;99.90
52103;DHT22;38101;53.126;6.878;2023-05-07T01:15:46;12.10;99.90
52103;DHT22;38101;53.126;6.878;2023-05-07T01:18:12;12.10;99.90
52103;DHT22;38101;53.126;6.878;2023-05-07T01:20:38;12.10;99.90
52103;DHT22;38101;53.126;6.878;2023-05-07T01:23:05;12.10;99.90
52103;DHT22;38101;53.126;6.878;2023-05-07T01:25:32;12.10;99.90
52103;DHT22;38101;53.126;6.878;2023-05-07T01:27:58;12.00;99.90
52103;DHT22;38101;53.126;6.878;2023-05-07T01:30:27;12.00;99.90
52103;DHT22;38101;53.126;6.878;2023-05-07T01:33:12;12.00;99.90
52103;DHT22;38101;53.126;6.878;2023-05-07T01:35:41;12.00;99.90
52103;DHT22;38101;53.126;6.878;2023-05-07T01:38:08;11.90;99.90
52103;DHT22;38101;53.126;6.878;2023-05-07T01:40:34;11.90;99.90
52103;DHT22;38101;53.126;6.878;2023-05-07T01:43:02;12.00;99.90
52103;DHT22;38101;53.126;6.878;2023-05-07T01:45:28;12.00;99.90
52103;DHT22;38101;53.126;6.878;2023-05-07T01:47:55;11.90;99.90
52103;DHT22;38101;53.126;6.878;2023-05-07T01:50:21;11.90;99.90
52103;DHT22;38101;53.126;6.878;2023-05-07T01:52:47;11.90;99.90
52103;DHT22;38101;53.126;6.878;2023-05-07T01:55:13;11.90;99.90
52103;DHT22;38101;53.126;6.878;2023-05-07T01:57:38;11.90;99.90
52103;DHT22;38101;53.126;6.878;2023-05-07T02:00:05;11.90;99.90
52103;DHT22;38101;53.126;6.878;2023-05-07T02:02:31;11.90;99.90
52103;DHT22;38101;53.126;6.878;2023-05-07T02:04:57;11.90;99.90
52103;DHT22;38101;53.126;6.878;2023-05-07T02:07:22;11.80;99.90
52103;DHT22;38101;53.126;6.878;2023-05-07T02:09:48;11.80;99.90
52103;DHT22;38101;53.126;6.878;2023-05-07T02:12:14;11.80;99.90
52103;DHT22;38101;53.126;6.878;2023-05-07T02:14:40;11.80;99.90
52103;DHT22;38101;53.126;6.878;2023-05-07T02:17:05;11.80;99.90
52103;DHT22;38101;53.126;6.878;2023-05-07T02:19:31;11.80;99.90
52103;DHT22;38101;53.126;6.878;2023-05-07T02:21:57;11.80;99.90
52103;DHT22;38101;53.126;6.878;2023-05-07T02:24:23;11.80;99.90
52103;DHT22;38101;53.126;6.878;2023-05-07T02:26:48;11.80;99.90
52103;DHT22;38101;53.126;6.878;2023-05-07T02:29:14;11.80;99.90
52103;DHT22;38101;53.126;6.878;2023-05-07T02:31:40;11.80;99.90
52103;DHT22;38101;53.126;6.878;2023-05-07T02:34:06;11.70;99.90
52103;DHT22;38101;53.126;6.878;2023-05-07T02:36:31;11.70;99.90
52103;DHT22;38101;53.126;6.878;2023-05-07T02:38:57;11.60;99.90
52103;DHT22;38101;53.126;6.878;2023-05-07T02:41:23;11.70;99.90
52103;DHT22;38101;53.126;6.878;2023-05-07T02:43:49;11.70;99.90
52103;DHT22;38101;53.126;6.878;2023-05-07T02:46:15;11.70;99.90
52103;DHT22;38101;53.126;6.878;2023-05-07T02:48:41;11.70;99.90
52103;DHT22;38101;53.126;6.878;2023-05-07T02:51:07;11.70;99.90
52103;DHT22;38101;53.126;6.878;2023-05-07T02:53:33;11.70;99.90
52103;DHT22;38101;53.126;6.878;2023-05-07T02:56:00;11.60;99.90
52103;DHT22;38101;53.126;6.878;2023-05-07T02:58:27;11.60;99.90
52103;DHT22;38101;53.126;6.878;2023-05-07T03:00:53;11.60;99.90
52103;DHT22;38101;53.126;6.878;2023-05-07T03:03:20;11.60;99.90
52103;DHT22;38101;53.126;6.878;2023-05-07T03:05:46;11.60;99.90
52103;DHT22;38101;53.126;6.878;2023-05-07T03:08:12;11.60;99.90
52103;DHT22;38101;53.126;6.878;2023-05-07T03:10:38;11.60;99.90
52103;DHT22;38101;53.126;6.878;2023-05-07T03:13:04;11.60;99.90
52103;DHT22;38101;53.126;6.878;2023-05-07T03:15:30;11.50;99.90
52103;DHT22;38101;53.126;6.878;2023-05-07T03:17:56;11.50;99.90
52103;DHT22;38101;53.126;6.878;2023-05-07T03:20:22;11.50;99.90
52103;DHT22;38101;53.126;6.878;2023-05-07T03:22:48;11.40;99.90
52103;DHT22;38101;53.126;6.878;2023-05-07T03:25:14;11.40;99.90
52103;DHT22;38101;53.126;6.878;2023-05-07T03:27:40;11.40;99.90
52103;DHT22;38101;53.126;6.878;2023-05-07T03:30:08;11.40;99.90
52103;DHT22;38101;53.126;6.878;2023-05-07T03:32:34;11.40;99.90
52103;DHT22;38101;53.126;6.878;2023-05-07T03:35:01;11.40;99.90
52103;DHT22;38101;53.126;6.878;2023-05-07T03:37:27;11.40;99.90
52103;DHT22;38101;53.126;6.878;2023-05-07T03:39:53;11.40;99.90
52103;DHT22;38101;53.126;6.878;2023-05-07T03:42:19;11.40;99.90
52103;DHT22;38101;53.126;6.878;2023-05-07T03:44:46;11.40;99.90
52103;DHT22;38101;53.126;6.878;2023-05-07T03:47:11;11.40;99.90
52103;DHT22;38101;53.126;6.878;2023-05-07T03:49:39;11.40;99.90
52103;DHT22;38101;53.126;6.878;2023-05-07T03:52:05;11.40;99.90
52103;DHT22;38101;53.126;6.878;2023-05-07T03:54:31;11.40;99.90
52103;DHT22;38101;53.126;6.878;2023-05-07T03:56:57;11.40;99.90
52103;DHT22;38101;53.126;6.878;2023-05-07T03:59:23;11.30;99.90
52103;DHT22;38101;53.126;6.878;2023-05-07T04:01:49;11.30;99.90
52103;DHT22;38101;53.126;6.878;2023-05-07T04:04:15;11.30;99.90
52103;DHT22;38101;53.126;6.878;2023-05-07T04:06:41;11.30;99.90
52103;DHT22;38101;53.126;6.878;2023-05-07T04:09:07;11.30;99.90
52103;DHT22;38101;53.126;6.878;2023-05-07T04:11:33;11.20;99.90
52103;DHT22;38101;53.126;6.878;2023-05-07T04:13:59;11.20;99.90
52103;DHT22;38101;53.126;6.878;2023-05-07T04:16:25;11.20;99.90
52103;DHT22;38101;53.126;6.878;2023-05-07T04:18:50;11.20;99.90
52103;DHT22;38101;53.126;6.878;2023-05-07T04:21:18;11.20;99.90
52103;DHT22;38101;53.126;6.878;2023-05-07T04:23:44;11.10;99.90
52103;DHT22;38101;53.126;6.878;2023-05-07T04:26:09;11.10;99.90
52103;DHT22;38101;53.126;6.878;2023-05-07T04:28:35;11.10;99.90
52103;DHT22;38101;53.126;6.878;2023-05-07T04:31:02;11.10;99.90
52103;DHT22;38101;53.126;6.878;2023-05-07T04:33:27;11.10;99.90
52103;DHT22;38101;53.126;6.878;2023-05-07T04:35:53;11.10;99.90
52103;DHT22;38101;53.126;6.878;2023-05-07T04:38:19;11.10;99.90
52103;DHT22;38101;53.126;6.878;2023-05-07T04:40:45;11.10;99.90
52103;DHT22;38101;53.126;6.878;2023-05-07T04:43:12;11.10;99.90
52103;DHT22;38101;53.126;6.878;2023-05-07T04:45:38;11.10;99.90
52103;DHT22;38101;53.126;6.878;2023-05-07T04:48:07;11.00;99.90
52103;DHT22;38101;53.126;6.878;2023-05-07T04:50:32;11.10;99.90
52103;DHT22;38101;53.126;6.878;2023-05-07T04:52:58;11.10;99.90
52103;DHT22;38101;53.126;6.878;2023-05-07T04:55:24;11.10;99.90
52103;DHT22;38101;53.126;6.878;2023-05-07T04:57:50;11.10;99.90
52103;DHT22;38101;53.126;6.878;2023-05-07T05:00:15;11.00;99.90
52103;DHT22;38101;53.126;6.878;2023-05-07T05:02:42;11.00;99.90
52103;DHT22;38101;53.126;6.878;2023-05-07T05:05:07;11.00;99.90
52103;DHT22;38101;53.126;6.878;2023-05-07T05:07:33;11.00;99.90
52103;DHT22;38101;53.126;6.878;2023-05-07T05:09:59;11.00;99.90
52103;DHT22;38101;53.126;6.878;2023-05-07T05:12:25;11.00;99.90
52103;DHT22;38101;53.126;6.878;2023-05-07T05:14:51;11.00;99.90
52103;DHT22;38101;53.126;6.878;2023-05-07T05:17:16;11.00;99.90
52103;DHT22;38101;53.126;6.878;2023-05-07T05:19:42;11.10;99.90
52103;DHT22;38101;53.126;6.878;2023-05-07T05:22:08;11.10;99.90
52103;DHT22;38101;53.126;6.878;2023-05-07T05:24:33;11.10;99.90
52103;DHT22;38101;53.126;6.878;2023-05-07T05:26:59;11.10;99.90
52103;DHT22;38101;53.126;6.878;2023-05-07T05:29:26;11.10;99.90
52103;DHT22;38101;53.126;6.878;2023-05-07T05:31:52;11.10;99.90
52103;DHT22;38101;53.126;6.878;2023-05-07T05:34:18;11.10;99.90
52103;DHT22;38101;53.126;6.878;2023-05-07T05:36:45;11.10;99.90
52103;DHT22;38101;53.126;6.878;2023-05-07T05:39:11;11.10;99.90
52103;DHT22;38101;53.126;6.878;2023-05-07T05:41:36;11.10;99.90
52103;DHT22;38101;53.126;6.878;2023-05-07T05:44:02;11.20;99.90
52103;DHT22;38101;53.126;6.878;2023-05-07T05:46:28;11.10;99.90
52103;DHT22;38101;53.126;6.878;2023-05-07T05:48:53;11.10;99.90
52103;DHT22;38101;53.126;6.878;2023-05-07T05:51:20;11.10;99.90
52103;DHT22;38101;53.126;6.878;2023-05-07T05:53:46;11.10;99.90
52103;DHT22;38101;53.126;6.878;2023-05-07T05:56:12;11.10;99.90
52103;DHT22;38101;53.126;6.878;2023-05-07T05:58:38;11.20;99.90
52103;DHT22;38101;53.126;6.878;2023-05-07T06:01:03;11.10;99.90
52103;DHT22;38101;53.126;6.878;2023-05-07T06:03:30;11.20;99.90
52103;DHT22;38101;53.126;6.878;2023-05-07T06:05:57;11.10;99.90
52103;DHT22;38101;53.126;6.878;2023-05-07T06:08:23;11.10;99.90
52103;DHT22;38101;53.126;6.878;2023-05-07T06:10:49;11.20;99.90
52103;DHT22;38101;53.126;6.878;2023-05-07T06:13:15;11.10;99.90
52103;DHT22;38101;53.126;6.878;2023-05-07T06:15:41;11.20;99.90
52103;DHT22;38101;53.126;6.878;2023-05-07T06:18:06;11.20;99.90
52103;DHT22;38101;53.126;6.878;2023-05-07T06:20:32;11.20;99.90
52103;DHT22;38101;53.126;6.878;2023-05-07T06:22:58;11.20;99.90
52103;DHT22;38101;53.126;6.878;2023-05-07T06:25:23;11.20;99.90
52103;DHT22;38101;53.126;6.878;2023-05-07T06:27:49;11.20;99.90
52103;DHT22;38101;53.126;6.878;2023-05-07T06:30:15;11.20;99.90
52103;DHT22;38101;53.126;6.878;2023-05-07T06:32:41;11.20;99.90
52103;DHT22;38101;53.126;6.878;2023-05-07T06:35:06;11.20;99.90
52103;DHT22;38101;53.126;6.878;2023-05-07T06:37:32;11.20;99.90
52103;DHT22;38101;53.126;6.878;2023-05-07T06:39:58;11.20;99.90
52103;DHT22;38101;53.126;6.878;2023-05-07T06:42:24;11.20;99.90
52103;DHT22;38101;53.126;6.878;2023-05-07T06:44:49;11.20;99.90
52103;DHT22;38101;53.126;6.878;2023-05-07T06:47:15;11.20;99.90
52103;DHT22;38101;53.126;6.878;2023-05-07T06:49:41;11.20;99.90
52103;DHT22;38101;53.126;6.878;2023-05-07T06:52:06;11.20;99.90
52103;DHT22;38101;53.126;6.878;2023-05-07T06:54:32;11.20;99.90
52103;DHT22;38101;53.126;6.878;2023-05-07T06:56:58;11.30;99.90
52103;DHT22;38101;53.126;6.878;2023-05-07T06:59:24;11.30;99.90
52103;DHT22;38101;53.126;6.878;2023-05-07T07:01:50;11.30;99.90
52103;DHT22;38101;53.126;6.878;2023-05-07T07:04:15;11.30;99.90
52103;DHT22;38101;53.126;6.878;2023-05-07T07:06:41;11.30;99.90
52103;DHT22;38101;53.126;6.878;2023-05-07T07:09:07;11.20;99.90
52103;DHT22;38101;53.126;6.878;2023-05-07T07:11:33;11.30;99.90
52103;DHT22;38101;53.126;6.878;2023-05-07T07:13:58;11.40;99.90
52103;DHT22;38101;53.126;6.878;2023-05-07T07:16:24;11.40;99.90
52103;DHT22;38101;53.126;6.878;2023-05-07T07:18:51;11.40;99.90
52103;DHT22;38101;53.126;6.878;2023-05-07T07:21:16;11.50;99.90
52103;DHT22;38101;53.126;6.878;2023-05-07T07:23:42;11.40;99.90
52103;DHT22;38101;53.126;6.878;2023-05-07T07:26:08;11.50;99.90
52103;DHT22;38101;53.126;6.878;2023-05-07T07:28:34;11.50;99.90
52103;DHT22;38101;53.126;6.878;2023-05-07T07:31:00;11.50;99.90
52103;DHT22;38101;53.126;6.878;2023-05-07T07:33:26;11.50;99.90
52103;DHT22;38101;53.126;6.878;2023-05-07T07:35:52;11.50;99.90
52103;DHT22;38101;53.126;6.878;2023-05-07T07:38:18;11.60;99.90
52103;DHT22;38101;53.126;6.878;2023-05-07T07:40:43;11.60;99.90
52103;DHT22;38101;53.126;6.878;2023-05-07T07:43:09;11.60;99.90
52103;DHT22;38101;53.126;6.878;2023-05-07T07:45:35;11.60;99.90
52103;DHT22;38101;53.126;6.878;2023-05-07T07:48:01;11.70;99.90
52103;DHT22;38101;53.126;6.878;2023-05-07T07:50:27;11.70;99.90
52103;DHT22;38101;53.126;6.878;2023-05-07T07:52:52;11.70;99.90
52103;DHT22;38101;53.126;6.878;2023-05-07T07:55:20;11.70;99.90
52103;DHT22;38101;53.126;6.878;2023-05-07T07:57:49;11.70;99.90
52103;DHT22;38101;53.126;6.878;2023-05-07T08:00:15;11.70;99.90
52103;DHT22;38101;53.126;6.878;2023-05-07T08:02:42;11.80;99.90
52103;DHT22;38101;53.126;6.878;2023-05-07T08:05:08;11.80;99.90
52103;DHT22;38101;53.126;6.878;2023-05-07T08:07:33;11.80;99.90
52103;DHT22;38101;53.126;6.878;2023-05-07T08:09:59;11.80;99.90
52103;DHT22;38101;53.126;6.878;2023-05-07T08:12:25;11.80;99.90
52103;DHT22;38101;53.126;6.878;2023-05-07T08:14:50;11.80;99.90
52103;DHT22;38101;53.126;6.878;2023-05-07T08:17:16;11.80;99.90
52103;DHT22;38101;53.126;6.878;2023-05-07T08:19:42;11.80;99.90
52103;DHT22;38101;53.126;6.878;2023-05-07T08:22:09;11.90;99.90
52103;DHT22;38101;53.126;6.878;2023-05-07T08:24:36;11.90;99.90
52103;DHT22;38101;53.126;6.878;2023-05-07T08:27:01;11.90;99.90
52103;DHT22;38101;53.126;6.878;2023-05-07T08:29:27;12.00;99.90
52103;DHT22;38101;53.126;6.878;2023-05-07T08:31:53;12.00;99.90
52103;DHT22;38101;53.126;6.878;2023-05-07T08:34:21;12.00;99.90
52103;DHT22;38101;53.126;6.878;2023-05-07T08:36:47;12.10;99.90
52103;DHT22;38101;53.126;6.878;2023-05-07T08:39:16;12.10;99.90
52103;DHT22;38101;53.126;6.878;2023-05-07T08:41:46;12.20;99.90
52103;DHT22;38101;53.126;6.878;2023-05-07T08:44:13;12.20;99.90
52103;DHT22;38101;53.126;6.878;2023-05-07T08:46:42;12.20;99.90
52103;DHT22;38101;53.126;6.878;2023-05-07T08:49:09;12.20;99.90
52103;DHT22;38101;53.126;6.878;2023-05-07T08:51:35;12.30;99.90
52103;DHT22;38101;53.126;6.878;2023-05-07T08:54:01;12.30;99.90
52103;DHT22;38101;53.126;6.878;2023-05-07T08:56:27;12.40;99.90
52103;DHT22;38101;53.126;6.878;2023-05-07T08:58:53;12.40;99.90
52103;DHT22;38101;53.126;6.878;2023-05-07T09:01:24;12.40;99.90
52103;DHT22;38101;53.126;6.878;2023-05-07T09:03:50;12.40;99.90
52103;DHT22;38101;53.126;6.878;2023-05-07T09:06:17;12.40;99.90
52103;DHT22;38101;53.126;6.878;2023-05-07T09:08:49;12.50;99.90
52103;DHT22;38101;53.126;6.878;2023-05-07T09:11:16;12.50;99.90
52103;DHT22;38101;53.126;6.878;2023-05-07T09:13:44;12.50;99.90
52103;DHT22;38101;53.126;6.878;2023-05-07T09:16:13;12.50;99.90
52103;DHT22;38101;53.126;6.878;2023-05-07T09:18:43;12.50;99.90
52103;DHT22;38101;53.126;6.878;2023-05-07T09:21:17;12.40;99.90
52103;DHT22;38101;53.126;6.878;2023-05-07T09:23:42;12.50;99.90
52103;DHT22;38101;53.126;6.878;2023-05-07T09:26:08;12.60;99.90
52103;DHT22;38101;53.126;6.878;2023-05-07T09:28:40;12.60;99.90
52103;DHT22;38101;53.126;6.878;2023-05-07T09:31:10;12.70;99.90
52103;DHT22;38101;53.126;6.878;2023-05-07T09:33:36;12.80;99.90
52103;DHT22;38101;53.126;6.878;2023-05-07T09:36:06;12.90;99.90
52103;DHT22;38101;53.126;6.878;2023-05-07T09:38:33;12.90;99.90
52103;DHT22;38101;53.126;6.878;2023-05-07T09:41:17;13.00;99.90
52103;DHT22;38101;53.126;6.878;2023-05-07T09:43:44;13.10;99.90
52103;DHT22;38101;53.126;6.878;2023-05-07T09:46:14;13.20;99.90
52103;DHT22;38101;53.126;6.878;2023-05-07T09:48:41;13.20;99.90
52103;DHT22;38101;53.126;6.878;2023-05-07T09:51:30;13.20;99.90
52103;DHT22;38101;53.126;6.878;2023-05-07T09:53:57;13.30;99.90
52103;DHT22;38101;53.126;6.878;2023-05-07T09:56:25;13.30;99.90
52103;DHT22;38101;53.126;6.878;2023-05-07T09:58:54;13.40;99.90
52103;DHT22;38101;53.126;6.878;2023-05-07T10:01:20;13.50;99.90
52103;DHT22;38101;53.126;6.878;2023-05-07T10:03:49;13.50;99.90
52103;DHT22;38101;53.126;6.878;2023-05-07T10:06:15;13.60;99.90
52103;DHT22;38101;53.126;6.878;2023-05-07T10:08:43;13.70;99.90
52103;DHT22;38101;53.126;6.878;2023-05-07T10:11:09;13.70;99.90
52103;DHT22;38101;53.126;6.878;2023-05-07T10:13:35;13.80;99.90
52103;DHT22;38101;53.126;6.878;2023-05-07T10:16:05;13.90;99.90
52103;DHT22;38101;53.126;6.878;2023-05-07T10:18:32;14.00;99.90
52103;DHT22;38101;53.126;6.878;2023-05-07T10:21:27;14.00;99.90
52103;DHT22;38101;53.126;6.878;2023-05-07T10:24:16;14.20;99.90
52103;DHT22;38101;53.126;6.878;2023-05-07T10:26:48;14.30;99.90
52103;DHT22;38101;53.126;6.878;2023-05-07T10:29:18;14.40;99.90
52103;DHT22;38101;53.126;6.878;2023-05-07T10:34:53;14.50;99.90
52103;DHT22;38101;53.126;6.878;2023-05-07T10:37:19;14.60;99.90
52103;DHT22;38101;53.126;6.878;2023-05-07T10:39:45;14.60;99.90
52103;DHT22;38101;53.126;6.878;2023-05-07T10:42:12;14.70;99.90
52103;DHT22;38101;53.126;6.878;2023-05-07T10:44:39;14.80;99.90
52103;DHT22;38101;53.126;6.878;2023-05-07T10:49:30;14.80;99.90
52103;DHT22;38101;53.126;6.878;2023-05-07T10:52:16;14.80;99.90
52103;DHT22;38101;53.126;6.878;2023-05-07T10:54:43;14.90;99.90
52103;DHT22;38101;53.126;6.878;2023-05-07T10:59:57;15.00;99.90
52103;DHT22;38101;53.126;6.878;2023-05-07T11:02:23;14.90;99.90
52103;DHT22;38101;53.126;6.878;2023-05-07T11:05:23;14.90;99.90
52103;DHT22;38101;53.126;6.878;2023-05-07T11:08:02;15.00;99.90
52103;DHT22;38101;53.126;6.878;2023-05-07T11:10:47;15.00;99.90
52103;DHT22;38101;53.126;6.878;2023-05-07T11:13:14;15.00;99.90
52103;DHT22;38101;53.126;6.878;2023-05-07T11:15:42;15.00;99.90
52103;DHT22;38101;53.126;6.878;2023-05-07T11:18:09;15.00;99.90
52103;DHT22;38101;53.126;6.878;2023-05-07T11:26:04;15.00;99.90
52103;DHT22;38101;53.126;6.878;2023-05-07T11:28:31;15.00;99.90
52103;DHT22;38101;53.126;6.878;2023-05-07T11:30:57;15.10;99.90
52103;DHT22;38101;53.126;6.878;2023-05-07T11:33:23;15.20;99.90
52103;DHT22;38101;53.126;6.878;2023-05-07T11:35:53;15.20;99.90
52103;DHT22;38101;53.126;6.878;2023-05-07T11:38:19;15.30;99.90
52103;DHT22;38101;53.126;6.878;2023-05-07T11:40:56;15.30;99.90
52103;DHT22;38101;53.126;6.878;2023-05-07T11:43:22;15.40;99.90
52103;DHT22;38101;53.126;6.878;2023-05-07T11:45:49;15.50;99.90
52103;DHT22;38101;53.126;6.878;2023-05-07T11:48:16;15.60;99.90
52103;DHT22;38101;53.126;6.878;2023-05-07T11:51:00;15.70;99.90
52103;DHT22;38101;53.126;6.878;2023-05-07T11:53:28;15.80;99.90
52103;DHT22;38101;53.126;6.878;2023-05-07T11:55:55;15.90;99.90
52103;DHT22;38101;53.126;6.878;2023-05-07T11:58:23;16.10;99.90
52103;DHT22;38101;53.126;6.878;2023-05-07T12:00:50;16.30;99.90
52103;DHT22;38101;53.126;6.878;2023-05-07T12:03:15;16.40;99.90
52103;DHT22;38101;53.126;6.878;2023-05-07T12:05:41;16.50;99.90
52103;DHT22;38101;53.126;6.878;2023-05-07T12:08:07;16.50;99.90
52103;DHT22;38101;53.126;6.878;2023-05-07T12:10:33;16.60;99.90
52103;DHT22;38101;53.126;6.878;2023-05-07T12:12:59;16.70;99.90
52103;DHT22;38101;53.126;6.878;2023-05-07T12:15:24;16.70;99.90
52103;DHT22;38101;53.126;6.878;2023-05-07T12:17:50;16.90;99.90
52103;DHT22;38101;53.126;6.878;2023-05-07T12:20:18;17.00;99.90
52103;DHT22;38101;53.126;6.878;2023-05-07T12:22:44;17.10;99.90
52103;DHT22;38101;53.126;6.878;2023-05-07T12:25:09;17.30;99.90
52103;DHT22;38101;53.126;6.878;2023-05-07T12:27:37;17.50;99.90
52103;DHT22;38101;53.126;6.878;2023-05-07T12:30:03;17.50;99.90
52103;DHT22;38101;53.126;6.878;2023-05-07T12:32:29;17.60;99.90
52103;DHT22;38101;53.126;6.878;2023-05-07T12:34:55;17.60;99.90
52103;DHT22;38101;53.126;6.878;2023-05-07T12:37:24;17.70;99.90
52103;DHT22;38101;53.126;6.878;2023-05-07T12:40:04;17.90;99.90
52103;DHT22;38101;53.126;6.878;2023-05-07T12:42:35;17.80;99.90
52103;DHT22;38101;53.126;6.878;2023-05-07T12:45:08;17.80;99.90
52103;DHT22;38101;53.126;6.878;2023-05-07T12:47:34;17.60;99.90
52103;DHT22;38101;53.126;6.878;2023-05-07T12:49:59;17.50;99.90
52103;DHT22;38101;53.126;6.878;2023-05-07T12:52:25;17.40;99.90
52103;DHT22;38101;53.126;6.878;2023-05-07T12:54:51;17.40;99.90
52103;DHT22;38101;53.126;6.878;2023-05-07T12:57:19;17.40;99.90
52103;DHT22;38101;53.126;6.878;2023-05-07T12:59:46;17.60;99.90
52103;DHT22;38101;53.126;6.878;2023-05-07T13:02:12;17.70;99.90
52103;DHT22;38101;53.126;6.878;2023-05-07T13:04:37;17.80;99.90
52103;DHT22;38101;53.126;6.878;2023-05-07T13:07:04;17.80;99.90
52103;DHT22;38101;53.126;6.878;2023-05-07T13:09:31;18.00;99.90
52103;DHT22;38101;53.126;6.878;2023-05-07T13:11:57;18.10;99.90
52103;DHT22;38101;53.126;6.878;2023-05-07T13:14:25;18.20;99.90
52103;DHT22;38101;53.126;6.878;2023-05-07T13:16:51;18.30;99.90
52103;DHT22;38101;53.126;6.878;2023-05-07T13:19:17;18.30;99.90
52103;DHT22;38101;53.126;6.878;2023-05-07T13:21:43;18.20;99.90
52103;DHT22;38101;53.126;6.878;2023-05-07T13:24:08;18.10;99.90
52103;DHT22;38101;53.126;6.878;2023-05-07T13:26:34;18.20;99.90
52103;DHT22;38101;53.126;6.878;2023-05-07T13:29:00;18.20;99.90
52103;DHT22;38101;53.126;6.878;2023-05-07T13:31:26;18.30;99.90
52103;DHT22;38101;53.126;6.878;2023-05-07T13:33:52;18.40;99.90
52103;DHT22;38101;53.126;6.878;2023-05-07T13:36:18;18.40;99.90
52103;DHT22;38101;53.126;6.878;2023-05-07T13:38:43;18.40;99.90
52103;DHT22;38101;53.126;6.878;2023-05-07T13:41:09;18.50;99.90
52103;DHT22;38101;53.126;6.878;2023-05-07T13:43:35;18.50;99.90
52103;DHT22;38101;53.126;6.878;2023-05-07T13:46:01;18.60;99.90
52103;DHT22;38101;53.126;6.878;2023-05-07T13:48:26;18.70;99.90
52103;DHT22;38101;53.126;6.878;2023-05-07T13:50:53;18.70;99.90
52103;DHT22;38101;53.126;6.878;2023-05-07T13:53:19;18.80;99.90
52103;DHT22;38101;53.126;6.878;2023-05-07T13:55:45;18.90;99.90
52103;DHT22;38101;53.126;6.878;2023-05-07T13:58:11;18.90;99.90
52103;DHT22;38101;53.126;6.878;2023-05-07T14:00:37;18.90;99.90
52103;DHT22;38101;53.126;6.878;2023-05-07T14:03:04;18.80;99.90
52103;DHT22;38101;53.126;6.878;2023-05-07T14:05:30;18.70;99.90
52103;DHT22;38101;53.126;6.878;2023-05-07T14:07:57;18.70;99.90
52103;DHT22;38101;53.126;6.878;2023-05-07T14:10:23;18.80;99.90
52103;DHT22;38101;53.126;6.878;2023-05-07T14:12:49;18.80;99.90
52103;DHT22;38101;53.126;6.878;2023-05-07T14:15:15;18.90;99.90
52103;DHT22;38101;53.126;6.878;2023-05-07T14:17:42;19.10;99.90
52103;DHT22;38101;53.126;6.878;2023-05-07T14:20:08;19.20;99.90
52103;DHT22;38101;53.126;6.878;2023-05-07T14:22:36;19.30;99.90
52103;DHT22;38101;53.126;6.878;2023-05-07T14:25:02;19.40;99.90
52103;DHT22;38101;53.126;6.878;2023-05-07T14:27:28;19.40;99.90
52103;DHT22;38101;53.126;6.878;2023-05-07T14:29:53;19.50;99.90
52103;DHT22;38101;53.126;6.878;2023-05-07T14:32:20;19.50;99.90
52103;DHT22;38101;53.126;6.878;2023-05-07T14:34:46;19.60;99.90
52103;DHT22;38101;53.126;6.878;2023-05-07T14:37:12;19.70;99.90
52103;DHT22;38101;53.126;6.878;2023-05-07T14:39:38;19.80;99.90
52103;DHT22;38101;53.126;6.878;2023-05-07T14:42:04;19.80;99.90
52103;DHT22;38101;53.126;6.878;2023-05-07T14:44:31;19.80;99.90
52103;DHT22;38101;53.126;6.878;2023-05-07T14:46:56;19.90;99.90
52103;DHT22;38101;53.126;6.878;2023-05-07T14:49:22;19.90;99.90
52103;DHT22;38101;53.126;6.878;2023-05-07T14:51:48;19.90;99.90
52103;DHT22;38101;53.126;6.878;2023-05-07T14:54:14;19.90;99.90
52103;DHT22;38101;53.126;6.878;2023-05-07T14:56:40;19.90;99.90
52103;DHT22;38101;53.126;6.878;2023-05-07T14:59:06;19.80;99.90
52103;DHT22;38101;53.126;6.878;2023-05-07T15:01:33;19.80;99.90
52103;DHT22;38101;53.126;6.878;2023-05-07T15:03:59;19.90;99.90
52103;DHT22;38101;53.126;6.878;2023-05-07T15:06:25;19.90;99.90
52103;DHT22;38101;53.126;6.878;2023-05-07T15:08:52;19.90;99.90
52103;DHT22;38101;53.126;6.878;2023-05-07T15:11:17;19.90;99.90
52103;DHT22;38101;53.126;6.878;2023-05-07T15:13:43;19.90;99.90
52103;DHT22;38101;53.126;6.878;2023-05-07T15:16:09;20.00;99.90
52103;DHT22;38101;53.126;6.878;2023-05-07T15:18:34;20.00;99.90
52103;DHT22;38101;53.126;6.878;2023-05-07T15:21:00;20.00;99.90
52103;DHT22;38101;53.126;6.878;2023-05-07T15:23:26;20.00;99.90
52103;DHT22;38101;53.126;6.878;2023-05-07T15:25:52;19.90;99.90
52103;DHT22;38101;53.126;6.878;2023-05-07T15:28:19;19.70;99.90
52103;DHT22;38101;53.126;6.878;2023-05-07T15:30:44;19.70;99.90
52103;DHT22;38101;53.126;6.878;2023-05-07T15:33:10;19.70;99.90
52103;DHT22;38101;53.126;6.878;2023-05-07T15:35:36;19.70;99.90
52103;DHT22;38101;53.126;6.878;2023-05-07T15:38:02;19.60;99.90
52103;DHT22;38101;53.126;6.878;2023-05-07T15:40:29;19.50;99.90